Time;durP1;ratioP1;P1;durP2;ratioP2;P2;SDS_P1;SDS_P2;PMS_P1;PMS_P2;Temp;Humidity;BMP_temperature;BMP_pressure;BME280_temperature;BME280_humidity;BME280_pressure;Samples;Min_cycle;Max_cycle;Signal;HPM_P1;HPM_P2
2021/04/28 02:45:55;;;;;;;32.88;23.90;;;10.40;76.50;;;;;;5669154;23;20063;-70
2021/04/28 02:48:22;;;;;;;32.45;21.38;;;10.40;76.30;;;;;;4909112;29;20036;-70
2021/04/28 02:51:08;;;;;;;37.60;23.95;;;10.50;76.30;;;;;;4908438;29;20088;-69
2021/04/28 02:53:35;;;;;;;32.33;21.57;;;10.40;76.50;;;;;;4907743;29;20029;-69
2021/04/28 02:56:03;;;;;;;44.13;24.85;;;10.50;76.30;;;;;;4909537;29;20024;-70
2021/04/28 02:58:31;;;;;;;35.28;21.95;;;10.50;76.50;;;;;;4924397;29;20073;-70
2021/04/28 03:01:04;;;;;;;31.55;23.23;;;10.50;76.60;;;;;;4893489;29;20224;-70
2021/04/28 03:03:32;;;;;;;37.03;22.85;;;10.40;76.80;;;;;;4909835;29;20247;-70
2021/04/28 03:06:06;;;;;;;33.88;23.52;;;10.40;76.70;;;;;;4890474;29;20355;-70
2021/04/28 03:08:46;;;;;;;32.60;22.25;;;10.40;76.80;;;;;;4909700;29;20031;-70
2021/04/28 03:11:12;;;;;;;;;;;10.40;77.00;;;;;;4910381;29;20068;-70
2021/04/28 03:13:40;;;;;;;38.22;24.13;;;10.40;77.50;;;;;;4893409;29;19907;-70
2021/04/28 03:16:08;;;;;;;37.05;24.05;;;10.40;77.20;;;;;;4908661;29;20374;-70
2021/04/28 03:18:36;;;;;;;33.85;24.15;;;10.40;77.40;;;;;;4893052;29;20035;-70
2021/04/28 03:21:03;;;;;;;36.17;23.75;;;10.40;77.60;;;;;;4908861;29;20042;-70
2021/04/28 03:23:31;;;;;;;34.08;23.90;;;10.40;77.60;;;;;;4908987;29;20068;-70
2021/04/28 03:25:58;;;;;;;36.65;23.55;;;10.40;77.60;;;;;;4908748;29;20024;-70
2021/04/28 03:28:25;;;;;;;39.10;24.30;;;10.30;78.00;;;;;;4908999;29;20029;-69
2021/04/28 03:30:51;;;;;;;34.92;22.55;;;10.30;78.20;;;;;;4908834;29;20024;-70
2021/04/28 03:33:16;;;;;;;45.85;24.83;;;10.30;78.40;;;;;;4908831;29;20244;-70
2021/04/28 03:36:01;;;;;;;33.65;24.25;;;10.30;79.10;;;;;;4909961;29;20044;-70
2021/04/28 03:38:47;;;;;;;34.60;23.52;;;10.30;78.20;;;;;;4924411;29;20071;-70
2021/04/28 03:41:14;;;;;;;;;;;10.30;78.50;;;;;;4909053;29;20111;-70
2021/04/28 03:43:43;;;;;;;34.22;22.88;;;10.30;78.90;;;;;;4908630;29;19982;-69
2021/04/28 03:46:09;;;;;;;34.13;23.30;;;10.30;78.40;;;;;;4909185;29;20240;-70
2021/04/28 03:48:48;;;;;;;34.05;22.52;;;10.30;78.40;;;;;;4909906;29;20028;-70
2021/04/28 03:51:15;;;;;;;40.15;22.95;;;10.30;78.90;;;;;;4903480;29;20024;-70
2021/04/28 03:54:01;;;;;;;37.05;23.98;;;10.30;78.50;;;;;;4905741;29;20048;-70
2021/04/28 03:56:27;;;;;;;36.85;23.30;;;10.40;78.80;;;;;;4909531;29;20096;-70
2021/04/28 03:58:55;;;;;;;32.53;22.90;;;10.40;78.80;;;;;;4908425;29;20032;-69
2021/04/28 04:01:21;;;;;;;37.78;23.23;;;10.50;78.50;;;;;;4908165;29;20043;-70
2021/04/28 04:03:47;;;;;;;32.10;22.65;;;10.50;78.70;;;;;;4908264;29;20024;-70
2021/04/28 04:06:15;;;;;;;32.38;22.00;;;10.50;78.50;;;;;;4909581;29;20040;-70
2021/04/28 04:09:07;;;;;;;33.28;23.33;;;10.60;78.60;;;;;;4895929;29;20025;-70
2021/04/28 04:11:35;;;;;;;33.10;21.23;;;10.70;78.70;;;;;;4910551;29;20028;-70
2021/04/28 04:14:02;;;;;;;33.17;22.88;;;10.60;78.60;;;;;;4914474;29;20029;-70
2021/04/28 04:16:28;;;;;;;33.35;21.50;;;10.70;78.60;;;;;;4917162;29;20104;-69
2021/04/28 04:18:54;;;;;;;38.50;22.08;;;10.70;78.90;;;;;;4895623;29;20036;-70
2021/04/28 04:21:21;;;;;;;41.08;21.75;;;10.70;78.60;;;;;;4902587;29;20028;-70
2021/04/28 04:24:00;;;;;;;32.58;21.92;;;10.70;78.70;;;;;;4919242;29;20024;-70
2021/04/28 04:26:42;;;;;;;28.48;20.38;;;10.80;78.70;;;;;;4920756;29;20067;-70
2021/04/28 04:29:27;;;;;;;32.35;21.88;;;10.80;78.30;;;;;;4911930;29;20277;-70
2021/04/28 04:31:57;;;;;;;34.25;22.20;;;10.90;78.10;;;;;;4909806;29;20315;-70
2021/04/28 04:34:41;;;;;;;38.50;21.95;;;10.90;78.20;;;;;;4908527;29;20046;-70
2021/04/28 04:37:26;;;;;;;34.63;22.05;;;10.90;78.40;;;;;;4914193;29;20076;-70
2021/04/28 04:40:17;;;;;;;30.67;20.70;;;11.00;78.70;;;;;;4908469;29;20028;-70
2021/04/28 04:43:06;;;;;;;40.97;23.13;;;11.00;78.60;;;;;;4892650;29;20036;-70
2021/04/28 04:45:45;;;;;;;32.55;21.50;;;11.10;78.30;;;;;;4907211;29;20036;-70
2021/04/28 04:48:10;;;;;;;29.92;21.17;;;11.10;78.70;;;;;;4903836;29;20028;-70
2021/04/28 04:50:37;;;;;;;30.92;22.10;;;11.20;78.30;;;;;;4908512;29;20044;-70
2021/04/28 04:53:07;;;;;;;32.20;22.70;;;11.20;78.10;;;;;;4907277;29;20040;-70
2021/04/28 04:55:33;;;;;;;32.75;22.40;;;11.30;78.00;;;;;;4908701;29;20024;-69
2021/04/28 04:57:59;;;;;;;32.63;22.25;;;11.20;78.50;;;;;;4908232;29;20040;-70
2021/04/28 05:00:27;;;;;;;28.95;21.45;;;11.20;78.20;;;;;;4906875;29;20024;-70
2021/04/28 05:02:52;;;;;;;34.50;21.15;;;11.30;78.70;;;;;;4906947;29;20032;-70
2021/04/28 05:05:19;;;;;;;45.08;21.92;;;11.30;79.10;;;;;;4908534;29;20028;-69
2021/04/28 05:07:44;;;;;;;32.17;19.90;;;11.30;78.70;;;;;;4906807;29;20092;-70
2021/04/28 05:10:11;;;;;;;29.88;21.13;;;11.30;78.30;;;;;;4906969;29;20241;-70
2021/04/28 05:12:38;;;;;;;34.75;20.65;;;11.40;78.20;;;;;;4891281;29;20063;-70
2021/04/28 05:15:07;;;;;;;31.20;21.58;;;11.40;77.90;;;;;;4906371;29;20039;-70
2021/04/28 05:17:33;;;;;;;30.65;20.23;;;11.50;77.70;;;;;;4907554;29;20039;-70
2021/04/28 05:19:59;;;;;;;30.75;20.10;;;11.50;77.40;;;;;;4906410;29;20046;-70
2021/04/28 05:22:26;;;;;;;31.75;19.25;;;11.60;77.20;;;;;;4904851;29;20346;-70
2021/04/28 05:25:31;;;;;;;30.05;19.25;;;11.60;77.20;;;;;;4912259;29;20064;-70
2021/04/28 05:27:56;;;;;;;27.15;18.77;;;11.60;76.80;;;;;;4912986;29;20020;-70
2021/04/28 05:30:22;;;;;;;30.92;19.70;;;11.70;76.00;;;;;;4910722;29;20060;-70
2021/04/28 05:32:48;;;;;;;33.63;19.20;;;11.80;75.90;;;;;;4912644;29;20020;-71
2021/04/28 05:35:14;;;;;;;30.85;18.52;;;11.80;75.90;;;;;;4917455;29;20024;-70
2021/04/28 05:37:40;;;;;;;32.08;18.20;;;11.90;76.00;;;;;;4905273;29;20039;-70
2021/04/28 05:40:07;;;;;;;31.50;17.63;;;11.90;74.70;;;;;;4913283;29;20064;-70
2021/04/28 05:42:33;;;;;;;30.75;18.90;;;11.90;74.90;;;;;;4886394;29;20285;-70
2021/04/28 05:44:59;;;;;;;36.58;19.52;;;11.90;75.10;;;;;;4913672;29;20039;-70
2021/04/28 05:47:25;;;;;;;32.33;20.42;;;12.00;75.90;;;;;;4927851;29;20040;-70
2021/04/28 05:49:51;;;;;;;30.90;18.77;;;12.00;75.10;;;;;;4911020;29;20095;-70
2021/04/28 05:52:17;;;;;;;35.63;19.88;;;12.10;75.60;;;;;;4914666;29;20024;-70
2021/04/28 05:54:42;;;;;;;30.83;20.02;;;12.20;75.30;;;;;;4914400;29;20286;-72
2021/04/28 05:57:09;;;;;;;31.25;19.60;;;12.20;74.50;;;;;;4913828;29;20024;-70
2021/04/28 05:59:35;;;;;;;32.08;19.35;;;12.20;74.80;;;;;;4915506;29;20032;-70
2021/04/28 06:02:01;;;;;;;31.70;18.60;;;12.40;75.10;;;;;;4912523;29;20084;-70
2021/04/28 06:04:27;;;;;;;37.30;19.13;;;12.40;73.90;;;;;;4917130;29;20027;-70
2021/04/28 06:06:53;;;;;;;27.90;18.85;;;12.50;73.70;;;;;;4915317;29;20040;-69
2021/04/28 06:09:19;;;;;;;27.40;19.25;;;12.60;73.70;;;;;;4898463;29;20050;-70
2021/04/28 06:11:45;;;;;;;27.67;18.55;;;12.60;73.10;;;;;;4915393;29;20028;-71
2021/04/28 06:14:11;;;;;;;31.47;17.77;;;12.70;73.40;;;;;;4906786;29;20036;-70
2021/04/28 06:16:37;;;;;;;29.10;19.13;;;12.80;72.40;;;;;;4914474;29;20020;-71
2021/04/28 06:19:03;;;;;;;26.88;17.95;;;12.90;72.20;;;;;;4916204;29;20028;-70
2021/04/28 06:21:28;;;;;;;27.52;16.48;;;13.00;71.80;;;;;;4912650;29;20079;-71
2021/04/28 06:23:54;;;;;;;27.67;18.15;;;13.10;69.90;;;;;;4911774;29;20021;-71
2021/04/28 06:26:20;;;;;;;24.55;16.85;;;13.40;69.20;;;;;;4915476;29;20080;-71
2021/04/28 06:28:46;;;;;;;30.77;17.65;;;13.70;68.40;;;;;;4915205;29;20016;-71
2021/04/28 06:31:13;;;;;;;28.25;18.08;;;14.00;68.10;;;;;;4914873;29;20025;-70
2021/04/28 06:33:42;;;;;;;31.27;17.90;;;14.30;66.10;;;;;;4895569;29;20137;-70
2021/04/28 06:36:09;;;;;;;31.23;17.48;;;14.40;65.40;;;;;;4911780;29;20072;-70
2021/04/28 06:38:36;;;;;;;29.10;18.05;;;14.40;64.00;;;;;;4915312;29;20052;-70
2021/04/28 06:41:02;;;;;;;28.15;17.70;;;14.50;64.10;;;;;;4913986;29;20113;-70
2021/04/28 06:43:28;;;;;;;27.23;17.58;;;14.70;65.10;;;;;;4914998;29;20031;-71
2021/04/28 06:45:54;;;;;;;29.67;18.20;;;14.80;62.90;;;;;;4906011;29;20319;-70
2021/04/28 06:48:19;;;;;;;26.75;18.60;;;14.80;63.70;;;;;;4889710;29;20033;-71
2021/04/28 06:50:45;;;;;;;25.35;18.42;;;14.90;63.10;;;;;;4909858;29;20020;-71
2021/04/28 06:53:11;;;;;;;29.17;19.08;;;15.00;63.50;;;;;;4912614;29;20021;-71
2021/04/28 06:55:36;;;;;;;27.98;18.90;;;14.90;62.60;;;;;;4918175;29;20055;-71
2021/04/28 06:58:02;;;;;;;24.20;18.52;;;15.00;62.30;;;;;;4916373;29;20036;-71
2021/04/28 07:00:29;;;;;;;26.30;18.92;;;15.00;61.50;;;;;;4909874;29;20486;-71
2021/04/28 07:02:56;;;;;;;28.27;19.55;;;15.00;63.00;;;;;;4904834;29;20042;-71
2021/04/28 07:05:23;;;;;;;35.40;18.77;;;15.10;63.20;;;;;;4909067;29;20029;-70
2021/04/28 07:07:50;;;;;;;28.58;18.70;;;15.30;63.30;;;;;;4908905;29;20036;-72
2021/04/28 07:10:16;;;;;;;30.85;18.83;;;15.50;62.10;;;;;;4909029;29;20251;-71
2021/04/28 07:12:42;;;;;;;26.33;18.20;;;15.50;61.40;;;;;;4910197;29;20033;-71
2021/04/28 07:15:09;;;;;;;32.70;19.52;;;15.60;60.90;;;;;;4908688;29;20283;-71
2021/04/28 07:17:35;;;;;;;30.33;19.37;;;15.50;62.10;;;;;;4908529;29;20087;-71
2021/04/28 07:20:02;;;;;;;27.30;20.20;;;15.60;61.60;;;;;;4908771;29;20042;-70
2021/04/28 07:22:28;;;;;;;27.90;18.80;;;15.70;60.80;;;;;;4903651;29;20288;-71
2021/04/28 07:24:54;;;;;;;31.92;19.88;;;15.70;61.40;;;;;;4909029;29;20048;-71
2021/04/28 07:27:23;;;;;;;29.63;18.95;;;15.80;61.40;;;;;;4907741;29;20068;-71
2021/04/28 07:29:49;;;;;;;33.47;18.27;;;15.90;60.60;;;;;;4892233;29;20145;-70
2021/04/28 07:32:16;;;;;;;33.13;18.98;;;16.10;60.60;;;;;;4909533;29;20028;-71
2021/04/28 07:34:42;;;;;;;26.60;18.25;;;16.10;59.40;;;;;;4908137;29;20035;-71
2021/04/28 07:37:08;;;;;;;27.55;19.02;;;16.10;59.70;;;;;;4905978;29;20024;-71
2021/04/28 07:39:34;;;;;;;31.95;18.42;;;16.10;59.60;;;;;;4907982;29;20253;-71
2021/04/28 07:42:01;;;;;;;22.52;18.38;;;16.20;60.00;;;;;;4913415;29;20037;-71
2021/04/28 07:44:30;;;;;;;35.40;18.08;;;16.20;59.40;;;;;;4911668;29;20067;-71
2021/04/28 07:46:59;;;;;;;30.63;18.50;;;16.10;57.90;;;;;;4884094;29;20149;-71
2021/04/28 07:49:25;;;;;;;26.63;18.08;;;15.80;58.30;;;;;;4898190;29;20028;-72
2021/04/28 07:51:51;;;;;;;24.42;16.75;;;15.70;59.00;;;;;;4906856;29;20068;-71
2021/04/28 07:54:20;;;;;;;25.10;17.20;;;15.80;61.70;;;;;;4906565;29;20033;-71
2021/04/28 07:56:46;;;;;;;31.05;19.13;;;16.00;59.50;;;;;;4892084;29;20044;-71
2021/04/28 07:59:13;;;;;;;24.52;16.42;;;16.00;58.40;;;;;;4910274;29;20272;-71
2021/04/28 08:01:39;;;;;;;30.77;16.85;;;16.10;58.60;;;;;;4904837;29;20048;-71
2021/04/28 08:04:05;;;;;;;27.08;17.58;;;16.10;58.30;;;;;;4895689;29;20029;-71
2021/04/28 08:06:31;;;;;;;26.00;16.40;;;16.10;58.70;;;;;;4901344;29;20096;-71
2021/04/28 08:08:57;;;;;;;23.17;16.27;;;16.20;57.70;;;;;;4895309;29;20040;-71
2021/04/28 08:11:23;;;;;;;28.73;17.38;;;16.10;56.40;;;;;;4902872;29;20033;-71
2021/04/28 08:13:48;;;;;;;26.63;16.52;;;16.10;57.60;;;;;;4903327;29;21338;-71
2021/04/28 08:16:14;;;;;;;24.58;16.10;;;16.20;57.80;;;;;;4905994;29;20032;-69
2021/04/28 08:18:41;;;;;;;25.15;16.42;;;16.40;58.20;;;;;;4908695;29;20020;-71
2021/04/28 08:21:08;;;;;;;23.42;16.13;;;16.50;56.70;;;;;;4907448;29;20271;-71
2021/04/28 08:23:41;;;;;;;23.27;15.52;;;16.50;56.70;;;;;;4904422;29;20308;-72
2021/04/28 08:26:07;;;;;;;19.83;14.82;;;16.50;57.10;;;;;;4904809;29;20064;-71
2021/04/28 08:28:34;;;;;;;24.77;14.68;;;16.60;56.50;;;;;;4908239;29;20036;-71
2021/04/28 08:31:00;;;;;;;23.73;14.88;;;16.70;56.70;;;;;;4906603;29;20048;-72
2021/04/28 08:33:26;;;;;;;20.13;15.63;;;16.80;56.90;;;;;;4908343;29;20048;-71
2021/04/28 08:35:51;;;;;;;21.25;14.57;;;17.00;56.40;;;;;;4908051;29;20048;-72
2021/04/28 08:38:17;;;;;;;22.95;14.95;;;17.20;56.10;;;;;;4893344;29;20035;-71
2021/04/28 08:40:43;;;;;;;21.67;14.93;;;17.60;54.70;;;;;;4915585;29;20087;-72
2021/04/28 08:43:09;;;;;;;28.15;13.80;;;18.00;53.70;;;;;;4891837;29;20328;-72
2021/04/28 08:45:34;;;;;;;21.90;13.82;;;18.30;53.40;;;;;;4907328;29;20024;-71
2021/04/28 08:48:00;;;;;;;20.27;12.57;;;18.80;52.30;;;;;;4910112;29;20078;-72
2021/04/28 08:50:26;;;;;;;19.38;13.35;;;19.10;51.10;;;;;;4907659;29;20062;-72
2021/04/28 08:52:52;;;;;;;23.17;13.98;;;19.50;48.90;;;;;;4913700;29;20331;-71
2021/04/28 08:55:19;;;;;;;19.77;12.85;;;19.80;48.00;;;;;;4907039;29;20025;-72
2021/04/28 08:57:45;;;;;;;20.20;12.40;;;20.00;47.70;;;;;;4909815;29;20020;-72
2021/04/28 09:00:12;;;;;;;21.10;12.77;;;20.30;47.40;;;;;;4919475;29;20027;-72
2021/04/28 09:03:01;;;;;;;17.45;12.63;;;20.60;47.40;;;;;;4916054;29;20259;-72
2021/04/28 09:05:31;;;;;;;19.40;12.45;;;20.90;47.30;;;;;;4896717;29;20029;-72
2021/04/28 09:07:58;;;;;;;25.20;14.15;;;21.20;45.80;;;;;;4911540;29;20063;-72
2021/04/28 09:10:29;;;;;;;17.73;11.82;;;21.80;44.40;;;;;;4907286;29;20012;-72
2021/04/28 09:13:04;;;;;;;17.92;12.25;;;22.20;43.90;;;;;;4914835;29;20032;-72
2021/04/28 09:15:42;;;;;;;22.42;11.65;;;22.50;43.30;;;;;;4914324;29;20208;-72
2021/04/28 09:18:19;;;;;;;17.25;11.40;;;22.90;41.70;;;;;;4901779;29;20088;-72
2021/04/28 09:21:03;;;;;;;19.25;13.77;;;23.30;42.10;;;;;;4909967;29;20038;-72
2021/04/28 09:23:39;;;;;;;20.52;12.85;;;23.30;39.40;;;;;;4914743;29;20041;-72
2021/04/28 09:26:37;;;;;;;25.42;13.30;;;23.30;40.70;;;;;;4910450;29;20024;-73
2021/04/28 09:29:30;;;;;;;14.38;11.65;;;23.90;40.50;;;;;;4889477;29;20049;-73
2021/04/28 09:32:01;;;;;;;17.67;10.95;;;24.50;40.20;;;;;;4905162;29;20028;-73
2021/04/28 09:34:30;;;;;;;19.15;11.55;;;24.70;38.50;;;;;;4905382;29;20036;-72
2021/04/28 09:37:17;;;;;;;25.08;13.05;;;24.80;37.50;;;;;;4903057;29;20043;-70
2021/04/28 09:39:49;;;;;;;;;;;24.40;37.50;;;;;;4906864;29;20035;-72
2021/04/28 09:42:17;;;;;;;19.85;12.25;;;24.60;37.70;;;;;;4906021;29;19955;-72
2021/04/28 09:44:49;;;;;;;23.80;13.05;;;24.40;37.90;;;;;;4907397;29;20017;-73
2021/04/28 09:47:19;;;;;;;16.73;11.98;;;24.70;38.20;;;;;;4902728;29;20044;-72
2021/04/28 09:49:52;;;;;;;17.02;12.38;;;25.10;37.70;;;;;;4900492;29;20028;-73
2021/04/28 09:52:23;;;;;;;15.00;11.43;;;25.40;37.50;;;;;;4898574;29;20040;-72
2021/04/28 09:54:51;;;;;;;22.80;12.10;;;25.60;37.00;;;;;;4904133;29;20024;-72
2021/04/28 09:57:18;;;;;;;16.73;12.00;;;25.60;35.90;;;;;;4902809;29;20039;-72
2021/04/28 09:59:51;;;;;;;14.65;10.90;;;25.60;35.20;;;;;;4907594;29;20051;-73
2021/04/28 10:02:31;;;;;;;17.65;11.70;;;25.40;35.90;;;;;;4905918;29;20048;-72
2021/04/28 10:05:23;;;;;;;15.88;10.95;;;25.80;35.80;;;;;;4906133;29;20024;-73
2021/04/28 10:07:51;;;;;;;21.00;12.07;;;26.20;35.50;;;;;;4905949;29;20049;-73
2021/04/28 10:10:18;;;;;;;22.13;10.30;;;26.00;36.00;;;;;;4893824;29;20021;-72
2021/04/28 10:12:44;;;;;;;19.55;9.75;;;26.30;34.60;;;;;;4918621;29;20037;-73
2021/04/28 10:15:11;;;;;;;16.97;10.93;;;26.60;34.50;;;;;;4890698;29;20111;-72
2021/04/28 10:17:38;;;;;;;16.10;9.73;;;26.30;34.50;;;;;;4907230;29;20032;-72
2021/04/28 10:20:06;;;;;;;16.75;11.63;;;26.30;33.90;;;;;;4907194;29;20347;-73
2021/04/28 10:22:32;;;;;;;22.83;11.85;;;25.80;34.10;;;;;;4907220;29;20268;-73
2021/04/28 10:25:03;;;;;;;17.25;11.77;;;25.90;34.30;;;;;;4906899;29;20017;-72
2021/04/28 10:27:29;;;;;;;14.88;11.27;;;25.80;33.90;;;;;;4906528;29;20036;-73
2021/04/28 10:29:55;;;;;;;16.97;10.30;;;26.00;34.80;;;;;;4908204;29;20024;-73
2021/04/28 10:32:23;;;;;;;14.52;9.30;;;26.00;33.80;;;;;;4905631;29;20281;-73
2021/04/28 10:35:07;;;;;;;17.92;9.23;;;26.10;34.20;;;;;;4910918;29;20367;-72
2021/04/28 10:37:36;;;;;;;13.77;10.00;;;26.30;32.90;;;;;;4910606;29;20033;-73
2021/04/28 10:40:09;;;;;;;15.40;10.38;;;26.20;33.40;;;;;;4910808;29;20025;-73
2021/04/28 10:42:37;;;;;;;18.20;9.85;;;26.10;34.20;;;;;;4909267;29;20064;-72
2021/04/28 10:45:05;;;;;;;13.73;10.25;;;26.50;34.20;;;;;;4910674;29;20020;-72
2021/04/28 10:47:47;;;;;;;15.00;10.00;;;26.40;33.10;;;;;;4908979;29;20048;-70
2021/04/28 10:50:22;;;;;;;15.68;9.02;;;26.20;34.00;;;;;;4910789;29;20049;-69
2021/04/28 10:52:54;;;;;;;16.65;9.88;;;25.50;34.00;;;;;;4910234;29;20073;-68
2021/04/28 10:55:40;;;;;;;11.95;8.65;;;25.30;35.10;;;;;;4910248;29;20311;-68
2021/04/28 10:58:25;;;;;;;;;;;25.60;35.20;;;;;;4905598;29;20379;-73
2021/04/28 11:01:18;;;;;;;14.43;7.63;;;26.00;34.60;;;;;;4904475;29;19915;-73
2021/04/28 11:03:52;;;;;;;9.98;7.15;;;25.80;34.60;;;;;;4905428;29;20043;-72
2021/04/28 11:08:57;;;;;;;9.63;7.30;;;25.90;34.40;;;;;;4906720;29;20383;-73
2021/04/28 11:14:15;;;;;;;12.57;8.38;;;25.80;34.40;;;;;;4908911;29;20072;-73
2021/04/28 11:16:49;;;;;;;11.77;7.60;;;25.70;34.00;;;;;;4909807;29;20029;-73
2021/04/28 11:19:36;;;;;;;12.82;7.65;;;25.40;34.40;;;;;;4908729;29;20036;-74
2021/04/28 11:22:21;;;;;;;15.68;7.65;;;25.20;34.60;;;;;;4907832;29;20203;-74
2021/04/28 11:25:12;;;;;;;11.43;7.00;;;25.30;35.00;;;;;;4908581;29;20032;-73
2021/04/28 11:27:47;;;;;;;11.10;7.38;;;25.20;36.10;;;;;;4906873;29;20020;-73
2021/04/28 11:30:19;;;;;;;11.48;6.78;;;25.40;35.40;;;;;;4908989;29;20040;-74
2021/04/28 11:33:05;;;;;;;9.00;6.20;;;25.70;34.40;;;;;;4906958;29;20024;-73
2021/04/28 11:35:30;;;;;;;12.07;7.45;;;25.70;33.80;;;;;;4908597;29;20056;-73
2021/04/28 11:38:23;;;;;;;9.68;6.00;;;25.90;34.00;;;;;;4909515;29;20043;-73
2021/04/28 11:41:03;;;;;;;12.57;6.03;;;26.20;33.20;;;;;;4902873;29;20057;-73
2021/04/28 11:43:42;;;;;;;13.10;5.57;;;26.30;34.40;;;;;;4909373;29;20024;-73
2021/04/28 11:46:13;;;;;;;7.07;4.95;;;26.20;33.60;;;;;;4907914;29;20028;-73
2021/04/28 11:48:40;;;;;;;11.65;6.18;;;26.00;33.50;;;;;;4890311;29;20033;-73
2021/04/28 11:51:09;;;;;;;8.13;5.38;;;25.50;34.80;;;;;;4902265;29;20028;-72
2021/04/28 11:53:51;;;;;;;11.95;5.78;;;25.20;34.80;;;;;;4909438;29;20096;-73
2021/04/28 11:56:38;;;;;;;10.85;5.40;;;25.20;34.50;;;;;;4902221;29;20380;-73
2021/04/28 11:59:06;;;;;;;9.60;5.50;;;25.30;34.70;;;;;;4900549;29;20331;-73
2021/04/28 12:01:34;;;;;;;9.52;5.57;;;25.10;36.00;;;;;;4904394;29;20036;-73
2021/04/28 12:04:08;;;;;;;8.02;5.75;;;25.10;35.80;;;;;;4908973;29;20052;-73
2021/04/28 12:06:41;;;;;;;13.45;6.03;;;25.10;35.00;;;;;;4903727;29;20025;-73
2021/04/28 12:09:16;;;;;;;10.68;5.93;;;25.10;35.50;;;;;;4907836;29;20044;-73
2021/04/28 12:11:45;;;;;;;10.60;5.22;;;25.10;35.30;;;;;;4909003;29;20029;-72
2021/04/28 12:14:11;;;;;;;9.70;5.20;;;24.90;36.50;;;;;;4908778;29;20072;-73
2021/04/28 12:16:57;;;;;;;7.10;4.53;;;24.90;36.90;;;;;;4907310;29;20032;-73
2021/04/28 12:19:24;;;;;;;12.10;6.40;;;24.30;36.00;;;;;;4901752;29;20331;-72
2021/04/28 12:22:00;;;;;;;8.80;5.28;;;23.70;37.30;;;;;;4907608;29;20286;-72
2021/04/28 12:24:32;;;;;;;10.77;5.55;;;23.80;38.50;;;;;;4905433;29;20021;-72
2021/04/28 12:27:12;;;;;;;7.60;5.07;;;23.50;38.10;;;;;;4910217;29;20020;-72
2021/04/28 12:29:44;;;;;;;8.15;4.47;;;23.40;38.30;;;;;;4897011;29;20064;-72
2021/04/28 12:32:11;;;;;;;11.95;5.15;;;23.40;38.30;;;;;;4907104;29;20020;-72
2021/04/28 12:34:39;;;;;;;6.93;4.75;;;23.20;38.70;;;;;;4907433;29;20040;-72
2021/04/28 12:37:17;;;;;;;11.88;4.90;;;23.10;39.60;;;;;;4907935;29;20029;-72
2021/04/28 12:39:57;;;;;;;9.68;4.72;;;23.00;39.30;;;;;;4908380;29;20044;-72
2021/04/28 12:42:25;;;;;;;10.65;4.78;;;22.80;40.30;;;;;;4900269;29;20022;-72
2021/04/28 12:44:52;;;;;;;6.60;4.55;;;22.80;40.30;;;;;;4906976;29;20049;-72
2021/04/28 12:47:22;;;;;;;13.73;4.57;;;22.70;40.50;;;;;;4907192;29;20037;-71
2021/04/28 12:50:03;;;;;;;15.27;4.00;;;22.50;40.00;;;;;;4901539;29;20047;-72
2021/04/28 12:52:37;;;;;;;9.27;4.60;;;22.30;41.00;;;;;;4890891;29;20028;-72
2021/04/28 12:55:21;;;;;;;10.52;4.35;;;22.30;41.60;;;;;;4907767;29;20036;-72
2021/04/28 12:57:55;;;;;;;9.43;4.78;;;22.10;41.10;;;;;;4904271;29;20033;-72
2021/04/28 13:00:22;;;;;;;8.30;4.85;;;22.00;41.40;;;;;;4907918;29;20036;-72
2021/04/28 13:03:04;;;;;;;12.90;4.90;;;22.10;41.80;;;;;;4906648;29;20096;-72
2021/04/28 13:05:35;;;;;;;11.05;4.43;;;21.90;41.90;;;;;;4907871;29;20021;-72
2021/04/28 13:08:23;;;;;;;8.65;4.35;;;21.80;42.30;;;;;;4903868;29;20173;-72
2021/04/28 13:11:02;;;;;;;7.78;4.53;;;22.10;42.00;;;;;;4902421;29;20205;-72
2021/04/28 13:13:28;;;;;;;8.52;4.78;;;22.00;42.10;;;;;;4902720;29;20060;-72
2021/04/28 13:15:54;;;;;;;7.25;4.50;;;21.90;42.10;;;;;;4904612;29;20028;-72
2021/04/28 13:18:20;;;;;;;6.13;3.80;;;21.70;41.70;;;;;;4903412;29;20039;-73
2021/04/28 13:20:46;;;;;;;10.80;3.85;;;21.60;43.20;;;;;;4903904;29;20025;-72
2021/04/28 13:23:18;;;;;;;7.18;4.45;;;21.60;42.60;;;;;;4898306;29;20751;-72
2021/04/28 13:25:56;;;;;;;8.95;4.70;;;21.70;42.80;;;;;;4906759;29;20091;-72
2021/04/28 13:28:36;;;;;;;7.55;3.75;;;21.70;43.50;;;;;;4901426;29;20040;-72
2021/04/28 13:31:19;;;;;;;6.38;4.05;;;21.80;43.40;;;;;;4902918;29;20064;-71
2021/04/28 13:33:46;;;;;;;7.53;3.92;;;21.60;42.00;;;;;;4906152;29;20032;-72
2021/04/28 13:36:23;;;;;;;;;;;21.60;43.60;;;;;;4905989;29;20047;-72
2021/04/28 13:38:50;;;;;;;15.10;4.00;;;21.60;43.60;;;;;;4905367;29;19915;-72
2021/04/28 13:41:17;;;;;;;9.77;4.72;;;21.50;43.00;;;;;;4906700;29;20025;-72
2021/04/28 13:43:42;;;;;;;10.83;4.33;;;21.40;42.90;;;;;;4907451;29;20096;-72
2021/04/28 13:46:08;;;;;;;10.50;3.63;;;21.40;43.50;;;;;;4906002;29;20060;-72
2021/04/28 13:48:34;;;;;;;10.90;3.60;;;21.40;43.50;;;;;;4907118;29;20339;-72
2021/04/28 13:51:00;;;;;;;5.50;3.00;;;21.50;43.80;;;;;;4901426;29;20033;-72
2021/04/28 13:53:26;;;;;;;11.02;4.45;;;21.50;43.90;;;;;;4906618;29;20063;-71
2021/04/28 13:55:53;;;;;;;6.10;4.05;;;21.30;43.00;;;;;;4906408;29;20029;-71
2021/04/28 13:58:20;;;;;;;10.00;4.05;;;21.10;44.10;;;;;;4906142;29;20044;-70
2021/04/28 14:00:46;;;;;;;6.03;3.70;;;21.20;44.30;;;;;;4905031;29;20047;-70
2021/04/28 14:03:12;;;;;;;8.18;3.80;;;21.30;44.50;;;;;;4902328;29;20036;-70
2021/04/28 14:05:37;;;;;;;5.57;3.42;;;21.30;43.70;;;;;;4909686;29;20017;-71
2021/04/28 14:08:03;;;;;;;10.60;4.30;;;21.20;43.50;;;;;;4907383;29;20025;-70
2021/04/28 14:10:29;;;;;;;5.57;3.30;;;21.10;44.70;;;;;;4904861;29;20032;-70
2021/04/28 14:12:55;;;;;;;8.63;3.92;;;21.10;44.30;;;;;;4909533;29;20064;-70
2021/04/28 14:15:21;;;;;;;4.63;3.75;;;21.00;44.50;;;;;;4909599;29;20025;-71
2021/04/28 14:17:46;;;;;;;7.45;3.63;;;20.90;43.90;;;;;;4902609;29;20068;-71
2021/04/28 14:20:12;;;;;;;8.02;3.83;;;20.90;45.30;;;;;;4906913;29;20033;-72
2021/04/28 14:22:38;;;;;;;8.15;3.50;;;20.90;44.90;;;;;;4903477;29;20254;-71
2021/04/28 14:25:05;;;;;;;13.63;3.92;;;21.00;44.90;;;;;;4910206;29;20020;-71
2021/04/28 14:27:31;;;;;;;7.45;3.78;;;20.90;44.80;;;;;;4909921;29;20024;-71
2021/04/28 14:29:56;;;;;;;9.00;4.20;;;20.90;45.10;;;;;;4903613;29;20028;-71
2021/04/28 14:32:22;;;;;;;7.53;4.22;;;20.80;45.00;;;;;;4903557;29;20065;-71
2021/04/28 14:34:48;;;;;;;7.50;4.13;;;20.70;45.20;;;;;;4908647;29;20032;-70
2021/04/28 14:37:14;;;;;;;6.18;4.40;;;20.70;45.40;;;;;;4904118;29;20025;-70
2021/04/28 14:39:39;;;;;;;8.50;4.97;;;20.70;45.80;;;;;;4908824;29;20035;-70
2021/04/28 14:42:05;;;;;;;9.25;4.40;;;20.60;45.10;;;;;;4909532;29;20530;-69
2021/04/28 14:44:31;;;;;;;8.32;4.68;;;20.50;46.10;;;;;;4909866;29;20020;-70
2021/04/28 14:46:56;;;;;;;8.07;4.80;;;20.50;46.10;;;;;;4909544;29;20083;-69
2021/04/28 14:49:22;;;;;;;6.45;4.63;;;20.60;46.30;;;;;;4891820;29;20023;-69
2021/04/28 14:51:48;;;;;;;8.52;4.35;;;20.60;46.40;;;;;;4898821;29;20033;-69
2021/04/28 14:54:13;;;;;;;9.77;4.82;;;20.70;46.60;;;;;;4904836;29;20017;-70
2021/04/28 14:56:39;;;;;;;7.43;4.75;;;20.70;45.70;;;;;;4899005;29;20044;-69
2021/04/28 14:59:05;;;;;;;9.10;4.80;;;20.60;46.30;;;;;;4908165;29;20256;-69
2021/04/28 15:01:31;;;;;;;9.00;5.07;;;20.60;46.20;;;;;;4914463;29;20101;-70
2021/04/28 15:03:57;;;;;;;11.75;5.38;;;20.50;46.30;;;;;;4914022;29;20068;-70
2021/04/28 15:06:22;;;;;;;9.38;4.38;;;20.50;47.10;;;;;;4879025;29;20036;-70
2021/04/28 15:08:48;;;;;;;12.13;4.80;;;20.50;47.10;;;;;;4894640;29;20044;-69
2021/04/28 15:11:14;;;;;;;11.63;4.82;;;20.50;46.80;;;;;;4892442;29;20036;-69
2021/04/28 15:13:40;;;;;;;8.60;5.60;;;20.50;46.90;;;;;;4893656;29;20020;-70
2021/04/28 15:16:06;;;;;;;14.35;5.22;;;20.40;47.00;;;;;;4889927;29;20032;-69
2021/04/28 15:18:32;;;;;;;8.43;5.43;;;20.30;47.70;;;;;;4880542;29;20228;-70
2021/04/28 15:20:58;;;;;;;6.25;4.70;;;20.20;47.50;;;;;;4877239;29;20093;-69
2021/04/28 15:23:25;;;;;;;8.30;4.95;;;20.20;47.30;;;;;;4898179;29;20452;-70
2021/04/28 15:25:51;;;;;;;12.23;5.15;;;20.20;48.00;;;;;;4896110;29;20047;-69
2021/04/28 15:28:17;;;;;;;7.30;4.90;;;20.20;47.80;;;;;;4882169;29;20064;-69
2021/04/28 15:30:43;;;;;;;6.63;5.15;;;20.40;47.40;;;;;;4880004;29;20261;-69
2021/04/28 15:33:17;;;;;;;10.32;5.32;;;20.40;46.60;;;;;;4891681;29;20360;-71
2021/04/28 15:35:43;;;;;;;13.48;4.75;;;20.40;46.60;;;;;;4877842;29;20040;-69
2021/04/28 15:38:10;;;;;;;10.13;5.20;;;20.40;46.80;;;;;;4909097;29;20048;-70